Flight Track Log - Related Links

Times and Time Zones

All times are in EDT time to prevent confusion due to time zone crossing. See the EJA839 flight status page for this flight to view local times or setup timezone preferences in your user account.

Time Position Orientation Groundspeed Altitude Reporting Facility
EDT Latitude Longitude Course Direction KTS MPH feet Rate Location/Type
Thu 01:52:36 PM 18.3167 -64.9333 198° South 180 207 1,500  Level San Juan Center
Thu 01:53:36 PM 18.2667 -64.9500 198° South 250 288 2,800 1,600 Climbing San Juan Center
Thu 01:54:36 PM 18.2667 -65.0333 270° West 220 253 4,700 2,479 Climbing San Juan Center
Thu 01:55:37 PM 18.2500 -65.1000 255° West 250 288 7,800 3,025 Climbing San Juan Center
Thu 01:56:37 PM 18.2667 -65.1833 282° West 270 311 10,800 3,000 Climbing San Juan Center
Thu 01:57:37 PM 18.2833 -65.2500 285° West 270 311 13,800 2,579 Climbing San Juan Center
Thu 01:58:38 PM 18.3000 -65.3333 282° West 280 322 16,000 1,091 Climbing San Juan Center
Thu 01:59:38 PM 18.3167 -65.4333 280° West 320 368 16,000  Level San Juan Center
Thu 02:00:38 PM 18.3500 -65.5333 289° West 340 391 16,000  Level San Juan Center
Thu 02:01:38 PM 18.3667 -65.6167 282° West 340 391 16,000  Level San Juan Center
Thu 02:02:38 PM 18.3833 -65.7167 280° West 350 403 16,000  Level San Juan Center
Thu 02:03:39 PM 18.4000 -65.8167 280° West 350 403 16,000  Level San Juan Center
Thu 02:04:39 PM 18.4333 -65.9167 289° West 350 403 16,000  Level San Juan Center
Thu 02:05:39 PM 18.4333 -66.0167 270° West 340 391 16,000  Level San Juan Center
Thu 02:06:40 PM 18.4500 -66.1333 279° West 350 403 16,000  Level San Juan Center
Thu 02:07:40 PM 18.4500 -66.2333 270° West 350 403 16,000  Level San Juan Center
Thu 02:08:40 PM 18.4500 -66.3333 270° West 350 403 16,000  Level San Juan Center
Thu 02:09:41 PM 18.4667 -66.4333 280° West 350 403 16,000  Level San Juan Center
Thu 02:10:41 PM 18.4667 -66.5500 270° West 350 403 16,000 -250 Level San Juan Center
Thu 02:11:41 PM 18.4667 -66.6500 270° West 350 403 15,500 -1,983 Descending San Juan Center
Thu 02:12:42 PM 18.4833 -66.7333 282° West 310 357 12,000 -3,719 Descending San Juan Center
Thu 02:13:42 PM 18.5000 -66.8167 282° West 280 322 8,000 -3,750 Descending San Juan Center
Thu 02:14:42 PM 18.5000 -66.9000 270° West 280 322 4,500 -2,876 Descending San Juan Center
Thu 02:15:43 PM 18.5167 -66.9667 285° West 250 288 2,200 -1,388 Descending San Juan Center
Thu 02:16:43 PM 18.5167 -67.0333 270° West 210 242 1,700 -250 Descending San Juan Center
Thu 02:17:43 PM 18.5167 -67.1000 270° West 200 230 1,700  Level San Juan Center
Thu 02:18:44 PM 18.5167 -67.1500 270° West 180 207 1,700 -50 Level San Juan Center
Thu 02:19:44 PM 18.5000 -67.1833 242° Southwest 120 138 1,600 -100 Descending San Juan Center
Thu 02:22:00 PM 18.4949 -67.1294 137° Southeast  Level Estimated
Thu 02:29:00 PM 18.4949 -67.1294 137° Southeast  Level Estimated

Login

Don't have an account? Register now (free) for customized features, flight alerts, and more!